ADDS METAR Data INFO
IDs: Format: Raw Decoded Include TAF

Data at: 2029 UTC 16 Dec 2017

KJWG 162015Z AUTO 19020G24KT 10SM CLR 15/01 A2988 RMK AO2 T01530005
KJWG 161955Z AUTO 19022G27KT 10SM CLR 16/01 A2987 RMK AO2 T01550005
KJWG 161935Z AUTO 19021G31KT 10SM CLR 16/01 A2988 RMK AO2 T01570005
KJWG 161915Z AUTO 19020G26KT 10SM CLR 16/01 A2989 RMK AO2 T01550005
KJWG 161855Z AUTO 20018G26KT 10SM CLR 15/00 A2989 RMK AO2 T01510004
KJWG 161835Z AUTO 20020G25KT 10SM CLR 15/01 A2990 RMK AO2 T01450005
KJWG 161815Z AUTO 20015G25KT 10SM CLR 14/00 A2990 RMK AO2 T01390002
KJWG 161755Z AUTO 20017G30KT 10SM CLR 13/00 A2991 RMK AO2 T01340002 10134 20031
KJWG 161735Z AUTO 20015G23KT 10SM CLR 13/00 A2992 RMK AO2 T01290002
KJWG 161715Z AUTO 20020G27KT 10SM CLR 12/00 A2994 RMK AO2 T01190000
KJWG 161655Z AUTO 20015G28KT 10SM CLR 11/00 A2995 RMK AO2 T01111002
KJWG 161635Z AUTO 20022G27KT 10SM CLR 10/00 A2995 RMK AO2 T01021004
KJWG 161615Z AUTO 19018G22KT 10SM CLR 09/00 A2995 RMK AO2 T00931004
KJWG 161555Z AUTO 19015G21KT 10SM CLR 08/00 A2995 RMK AO2 T00801005
KJWG 161535Z AUTO 20015G19KT 10SM CLR 07/M01 A2995 RMK AO2 T00681006
KJWG 161515Z AUTO 20014G19KT 10SM CLR 06/M01 A2995 RMK AO2 T00591010
KJWG 161455Z AUTO 20011KT 10SM CLR 05/M01 A2995 RMK AO2 T00501012
KJWG 161435Z AUTO 19010G14KT 10SM CLR 04/M01 A2995 RMK AO2 T00441013
KJWG 161415Z AUTO 18011KT 10SM CLR 04/M01 A2995 RMK AO2 T00401015
KJWG 161355Z AUTO 19010G17KT 10SM CLR 04/M01 A2995 RMK AO2 T00361015
KJWG 161335Z AUTO 19010G15KT 10SM CLR 04/M02 A2995 RMK AO2 T00351017
KJWG 161315Z AUTO 19011KT 10SM CLR 03/M02 A2994 RMK AO2 T00311019
KJWG 161255Z AUTO 19013G19KT 10SM CLR 04/M02 A2994 RMK AO2 T00351019
KJWG 161235Z AUTO 19014KT 10SM CLR 04/M02 A2994 RMK AO2 T00401018
KJWG 161215Z AUTO 19011KT 10SM CLR 04/M02 A2994 RMK AO2 T00421018
KJWG 161155Z AUTO 19010KT 10SM CLR 04/M02 A2994 RMK AO2 T00381020 10061 20037
KJWG 161135Z AUTO 19010G15KT 10SM CLR 05/M02 A2994 RMK AO2 T00451020
KJWG 161115Z AUTO 20009KT 10SM CLR 05/M02 A2994 RMK AO2 T00481018
KJWG 161055Z AUTO 20008G14KT 10SM CLR 05/M02 A2995 RMK AO2 T00471018
KJWG 161035Z AUTO 19009G14KT 10SM CLR 05/M02 A2996 RMK AO2 T00451020
KJWG 161015Z AUTO 20008KT 10SM CLR 04/M02 A2997 RMK AO2 T00421020
KJWG 160955Z AUTO 20009G17KT 10SM CLR 05/M02 A2997 RMK AO2 T00451020
KJWG 160935Z AUTO 20012KT 10SM CLR 04/M02 A2998 RMK AO2 T00441020
KJWG 160915Z AUTO 21009KT 10SM CLR 04/M02 A2998 RMK AO2 T00431020
KJWG 160855Z AUTO 21010KT 10SM CLR 04/M02 A2998 RMK AO2 T00441020
KJWG 160835Z AUTO 21009KT 10SM CLR 05/M02 A2999 RMK AO2 T00501020
KJWG 160815Z AUTO 22010KT 10SM CLR 06/M02 A2999 RMK AO2 T00551020
KJWG 160755Z AUTO 21013KT 10SM CLR 06/M02 A2999 RMK AO2 T00591020
KJWG 160735Z AUTO 21014KT 10SM CLR 06/M02 A3000 RMK AO2 T00601019
KJWG 160715Z AUTO 20011KT 10SM CLR 05/M02 A3000 RMK AO2 T00541020
KJWG 160655Z AUTO 19010KT 10SM CLR 05/M02 A3001 RMK AO2 T00491022
KJWG 160635Z AUTO 19011KT 10SM CLR 05/M02 A3002 RMK AO2 T00531023
KJWG 160615Z AUTO 20013G18KT 10SM CLR 06/M02 A3003 RMK AO2 T00571022
KJWG 160555Z AUTO 19012G19KT 10SM CLR 06/M02 A3003 RMK AO2 T00581022 10081 20055 401201048
KJWG 160535Z AUTO 20012KT 10SM CLR 06/M02 A3004 RMK AO2 T00561023
KJWG 160515Z AUTO 20012G18KT 10SM CLR 06/M02 A3004 RMK AO2 T00571022
KJWG 160455Z AUTO 19012KT 10SM CLR 06/M02 A3004 RMK AO2 T00571023
KJWG 160435Z AUTO 19012G17KT 10SM CLR 06/M02 A3004 RMK AO2 T00601024
KJWG 160415Z AUTO 19011KT 10SM CLR 06/M02 A3004 RMK AO2 T00611025
KJWG 160355Z AUTO 19009KT 10SM CLR 06/M02 A3005 RMK AO2 T00601025
KJWG 160335Z AUTO 20011KT 10SM CLR 06/M03 A3006 RMK AO2 T00621026
KJWG 160315Z AUTO 19008KT 10SM CLR 06/M03 A3005 RMK AO2 T00601026
KJWG 160255Z AUTO 18010G14KT 10SM CLR 07/M02 A3005 RMK AO2 T00651025
KJWG 160235Z AUTO 19009G15KT 10SM CLR 07/M02 A3006 RMK AO2 T00691025
KJWG 160215Z AUTO 19011G16KT 10SM CLR 07/M02 A3005 RMK AO2 T00701025
KJWG 160155Z AUTO 19011G16KT 10SM CLR 07/M02 A3006 RMK AO2 T00701025
KJWG 160135Z AUTO 19009KT 10SM CLR 07/M02 A3006 RMK AO2 T00681025
KJWG 160115Z AUTO 18007KT 10SM CLR 06/M02 A3007 RMK AO2 T00621024
KJWG 160055Z AUTO 18009KT 10SM CLR 07/M02 A3008 RMK AO2 T00651024
KJWG 160035Z AUTO 18008KT 10SM CLR 07/M02 A3008 RMK AO2 T00691022
KJWG 160015Z AUTO 18007KT 10SM CLR 08/M02 A3009 RMK AO2 T00751022
KJWG 152355Z AUTO 18007KT 10SM CLR 08/M02 A3010 RMK AO2 T00811022 10120 20074
KJWG 152335Z AUTO 19008KT 10SM CLR 09/M02 A3010 RMK AO2 T00861021
KJWG 152315Z AUTO 19008KT 10SM CLR 10/M02 A3010 RMK AO2 T01021020
KJWG 152255Z AUTO 22007KT 10SM CLR 11/M02 A3011 RMK AO2 T01101016
KJWG 152235Z AUTO 22009KT 10SM CLR 12/M02 A3011 RMK AO2 T01151017
KJWG 152215Z AUTO 22011KT 10SM CLR 12/M02 A3011 RMK AO2 T01201017
KJWG 152155Z AUTO 21012G16KT 10SM CLR 12/M02 A3012 RMK AO2 T01201018
KJWG 152135Z AUTO 22013KT 10SM CLR 12/M02 A3013 RMK AO2 T01191020
KJWG 152115Z AUTO 20012G16KT 10SM CLR 12/M02 A3013 RMK AO2 T01161020
KJWG 152055Z AUTO 22010KT 10SM CLR 12/M02 A3013 RMK AO2 T01151023
KJWG 152035Z AUTO 22010KT 10SM CLR 11/M02 A3015 RMK AO2 T01121017
KJWG 152015Z AUTO 24011G16KT 10SM CLR 11/M02 A3015 RMK AO2 T01101019
KJWG 151955Z AUTO 24009G15KT 10SM CLR 11/M01 A3017 RMK AO2 T01061015
KJWG 151935Z AUTO 24010G15KT 10SM CLR 10/M01 A3018 RMK AO2 T01021015
KJWG 151915Z AUTO 23009G14KT 10SM CLR 10/M02 A3018 RMK AO2 T00971016
KJWG 151855Z AUTO 24010G15KT 10SM CLR 09/M02 A3020 RMK AO2 T00901018
KJWG 151835Z AUTO 24008KT 10SM CLR 09/M01 A3022 RMK AO2 T00861011
KJWG 151815Z AUTO 23007G14KT 10SM CLR 08/M01 A3023 RMK AO2 T00791011
KJWG 151755Z AUTO 23007KT 10SM CLR 07/M01 A3025 RMK AO2 T00741011 10074 21048
KJWG 151735Z AUTO 24008KT 10SM CLR 07/M01 A3026 RMK AO2 T00701009
KJWG 151715Z AUTO 21007KT 10SM CLR 07/00 A3026 RMK AO2 T00661002
KJWG 151655Z AUTO 23005KT 10SM CLR 06/00 A3028 RMK AO2 T00601003
KJWG 151635Z AUTO 19004KT 10SM CLR 05/00 A3028 RMK AO2 T00481001
KJWG 151615Z AUTO 00000KT 10SM CLR 04/00 A3028 RMK AO2 T00351005
KJWG 151555Z AUTO 00000KT 10SM CLR 02/M01 A3027 RMK AO2 T00211009
KJWG 151535Z AUTO 00000KT 10SM CLR 01/M02 A3028 RMK AO2 T00071017
KJWG 151515Z AUTO 25004KT 10SM CLR 00/M02 A3029 RMK AO2 T10021021
KJWG 151455Z AUTO 28003KT 10SM CLR M02/M03 A3029 RMK AO2 T10161027
KJWG 151435Z AUTO 28004KT 10SM CLR M02/M03 A3029 RMK AO2 T10251033
KJWG 151415Z AUTO 28004KT 10SM CLR M04/M04 A3029 RMK AO2 T10401044
KJWG 151355Z AUTO 28004KT 10SM CLR M04/M04 A3029 RMK AO2 T10381038
KJWG 151335Z AUTO 28006KT 10SM CLR M05/M05 A3028 RMK AO2 T10481051
KJWG 151315Z AUTO 29005KT 10SM CLR M04/M05 A3028 RMK AO2 T10431047
KJWG 151255Z AUTO 29008KT 10SM CLR M04/M05 A3029 RMK AO2 T10391046
KJWG 151235Z AUTO 30004KT 10SM CLR M03/M04 A3028 RMK AO2 T10311040
KJWG 151215Z AUTO 31004KT 10SM CLR M03/M03 A3027 RMK AO2 T10281034
KJWG 151155Z AUTO 29006KT 10SM CLR M03/M04 A3027 RMK AO2 T10341038 10050 21035
KJWG 151135Z AUTO 30006KT 10SM CLR M03/M03 A3027 RMK AO2 T10281035
KJWG 151115Z AUTO 31005KT 10SM CLR M03/M04 A3027 RMK AO2 T10301037
KJWG 151055Z AUTO 31004KT 10SM CLR M02/M03 A3028 RMK AO2 T10161028
KJWG 151035Z AUTO 30005KT 10SM CLR M02/M03 A3028 RMK AO2 T10211030
KJWG 151015Z AUTO 29006KT 10SM CLR M01/M03 A3028 RMK AO2 T10141027
KJWG 150955Z AUTO 31005KT 10SM CLR 00/M02 A3028 RMK AO2 T10041021
KJWG 150935Z AUTO 31006KT 10SM CLR 00/M02 A3027 RMK AO2 T10051022
KJWG 150915Z AUTO 30006KT 10SM CLR 00/M02 A3027 RMK AO2 T00031019
KJWG 150855Z AUTO 31007KT 10SM CLR 01/M02 A3027 RMK AO2 T00051016
KJWG 150835Z AUTO 31006KT 10SM CLR 01/M01 A3026 RMK AO2 T00061015